createdAt,value
2023-04-15T00:01:13.402Z,91.54
2023-04-15T00:03:41.362Z,91.06
2023-04-15T00:06:09.844Z,90.38
2023-04-15T00:08:37.145Z,90.80
2023-04-15T00:11:05.996Z,90.81
2023-04-15T00:13:34.210Z,90.33
2023-04-15T00:16:01.828Z,90.66
2023-04-15T00:18:32.269Z,90.96
2023-04-15T00:20:59.600Z,90.72
2023-04-15T00:23:26.862Z,91.33
2023-04-15T00:25:54.188Z,90.87
2023-04-15T00:28:21.697Z,91.11
2023-04-15T00:30:48.993Z,89.55
2023-04-15T00:33:19.182Z,89.49
2023-04-15T00:35:47.439Z,90.05
2023-04-15T00:38:14.760Z,88.94
2023-04-15T00:40:42.625Z,89.31
2023-04-15T00:43:10.255Z,88.99
2023-04-15T00:45:37.653Z,88.35
2023-04-15T00:48:04.990Z,87.39
2023-04-15T00:50:33.071Z,87.40
2023-04-15T00:53:00.350Z,87.25
2023-04-15T00:55:28.145Z,87.84
2023-04-15T00:57:56.362Z,87.12
2023-04-15T01:00:23.732Z,87.35
2023-04-15T01:02:51.128Z,86.19
2023-04-15T01:05:19.501Z,86.09
2023-04-15T01:07:47.984Z,85.91
2023-04-15T01:10:15.301Z,86.28
2023-04-15T01:12:43.562Z,87.01
2023-04-15T01:15:11.202Z,86.87
2023-04-15T01:17:39.325Z,88.18
2023-04-15T01:20:10.590Z,88.29
2023-04-15T01:22:38.495Z,88.34
2023-04-15T01:25:13.186Z,88.66
2023-04-15T01:27:41.172Z,88.06
2023-04-15T01:30:09.213Z,88.48
2023-04-15T01:32:36.978Z,88.29
2023-04-15T01:35:04.491Z,87.70
2023-04-15T01:37:32.102Z,88.26
2023-04-15T01:39:59.889Z,88.60
2023-04-15T01:42:27.779Z,88.52
2023-04-15T01:44:55.162Z,88.28
2023-04-15T01:47:22.574Z,88.22
2023-04-15T01:49:49.973Z,87.90
2023-04-15T01:52:17.257Z,87.94
2023-04-15T01:54:44.590Z,86.70
2023-04-15T01:57:12.964Z,87.17
2023-04-15T01:59:41.118Z,86.79
2023-04-15T02:02:08.535Z,86.76
2023-04-15T02:04:35.830Z,87.63
2023-04-15T02:07:03.075Z,87.80
2023-04-15T02:09:30.432Z,87.67
2023-04-15T02:11:57.757Z,87.66
2023-04-15T02:14:25.065Z,88.62
2023-04-15T02:16:54.984Z,88.78
2023-04-15T02:19:22.270Z,87.73
2023-04-15T02:21:49.528Z,88.23
2023-04-15T02:24:18.375Z,87.88
2023-04-15T02:26:46.758Z,87.29
2023-04-15T02:29:14.078Z,87.11
2023-04-15T02:31:42.308Z,86.46
2023-04-15T02:34:09.682Z,87.16
2023-04-15T02:36:37.011Z,87.01
2023-04-15T02:39:05.875Z,86.79
2023-04-15T02:41:33.166Z,87.27
2023-04-15T02:44:00.811Z,86.63
2023-04-15T02:46:30.823Z,87.71
2023-04-15T02:49:00.363Z,88.18
2023-04-15T02:51:31.300Z,89.32
2023-04-15T02:53:58.684Z,89.40
2023-04-15T02:56:26.135Z,88.39
2023-04-15T02:58:56.168Z,88.43
2023-04-15T03:01:24.327Z,89.04
2023-04-15T03:03:51.817Z,89.03
2023-04-15T03:06:19.332Z,89.17
2023-04-15T03:08:46.759Z,89.65
2023-04-15T03:11:15.319Z,90.42
2023-04-15T03:13:43.464Z,89.27
2023-04-15T03:16:21.900Z,90.22
2023-04-15T03:18:49.358Z,89.94
2023-04-15T03:21:16.712Z,89.64
2023-04-15T03:23:45.445Z,89.65
2023-04-15T03:26:24.885Z,90.09
2023-04-15T03:28:53.037Z,89.68
2023-04-15T03:31:20.583Z,89.35
2023-04-15T03:33:48.011Z,90.03
2023-04-15T03:36:15.755Z,89.72
2023-04-15T03:38:43.297Z,90.14
2023-04-15T03:41:10.653Z,90.23
2023-04-15T03:43:37.926Z,90.29
2023-04-15T03:46:05.333Z,90.36
2023-04-15T03:48:32.626Z,90.06
2023-04-15T03:50:59.913Z,89.66
2023-04-15T03:53:27.234Z,90.17
2023-04-15T03:55:54.531Z,90.42
2023-04-15T03:58:21.883Z,90.34
2023-04-15T04:00:49.102Z,89.76
2023-04-15T04:03:16.756Z,90.09
2023-04-15T04:05:44.614Z,90.04
2023-04-15T04:08:13.984Z,90.01
2023-04-15T04:10:41.429Z,89.91
2023-04-15T04:13:08.741Z,89.76
2023-04-15T04:15:36.376Z,90.19
2023-04-15T04:18:03.856Z,90.24
2023-04-15T04:20:32.182Z,90.41
2023-04-15T04:22:59.483Z,90.36
2023-04-15T04:25:27.361Z,89.96
2023-04-15T04:27:54.650Z,90.35
2023-04-15T04:30:22.339Z,90.37
2023-04-15T04:32:50.198Z,90.69
2023-04-15T04:35:17.535Z,90.36
2023-04-15T04:37:44.831Z,90.49
2023-04-15T04:40:12.644Z,89.83
2023-04-15T04:42:40.265Z,88.66
2023-04-15T04:45:08.734Z,88.88
2023-04-15T04:47:36.357Z,88.09
2023-04-15T04:50:03.821Z,88.00
2023-04-15T04:52:31.178Z,88.57
2023-04-15T04:54:58.434Z,88.44
2023-04-15T04:57:25.705Z,89.24
2023-04-15T04:59:53.009Z,88.32
2023-04-15T05:02:20.614Z,87.73
2023-04-15T05:04:47.967Z,87.14
2023-04-15T05:07:15.977Z,86.72
2023-04-15T05:09:43.247Z,87.25
2023-04-15T05:12:15.019Z,87.47
2023-04-15T05:14:42.465Z,87.56
2023-04-15T05:17:09.768Z,87.56
2023-04-15T05:19:37.106Z,88.32
2023-04-15T05:22:04.435Z,86.98
2023-04-15T05:24:31.726Z,86.64
2023-04-15T05:26:58.948Z,86.38
2023-04-15T05:29:26.292Z,87.39
2023-04-15T05:31:53.617Z,87.38
2023-04-15T05:34:20.900Z,87.34
2023-04-15T05:36:48.148Z,86.99
2023-04-15T05:39:15.548Z,86.47
2023-04-15T05:41:42.829Z,86.01
2023-04-15T05:44:10.233Z,86.57
2023-04-15T05:46:37.896Z,86.50
2023-04-15T05:49:05.194Z,85.62
2023-04-15T05:51:32.459Z,85.92
2023-04-15T05:53:59.814Z,82.87
2023-04-15T05:56:27.294Z,82.96
2023-04-15T05:58:54.578Z,83.91
2023-04-15T06:01:22.238Z,85.07
2023-04-15T06:03:49.752Z,84.07
2023-04-15T06:06:17.142Z,84.26
2023-04-15T06:08:44.491Z,85.00
2023-04-15T06:11:11.811Z,84.94
2023-04-15T06:13:39.044Z,85.13
2023-04-15T06:16:06.944Z,84.46
2023-04-15T06:18:34.263Z,85.31
2023-04-15T06:21:01.719Z,84.62
2023-04-15T06:23:29.060Z,85.06
2023-04-15T06:25:56.367Z,84.73
2023-04-15T06:28:23.629Z,84.06
2023-04-15T06:30:50.935Z,83.27
2023-04-15T06:35:10.720Z,83.12
2023-04-15T06:37:38.094Z,81.67
2023-04-15T06:40:06.299Z,80.32
2023-04-15T06:42:34.105Z,79.49
2023-04-15T06:45:01.775Z,79.24
2023-04-15T06:47:29.149Z,77.69
2023-04-15T06:49:56.499Z,77.91
2023-04-15T06:52:23.784Z,78.46
2023-04-15T06:54:51.212Z,78.49
2023-04-15T06:57:18.490Z,78.55
2023-04-15T06:59:46.163Z,77.82
2023-04-15T07:02:14.136Z,76.99
2023-04-15T07:04:41.515Z,76.72
2023-04-15T07:07:09.522Z,77.38
2023-04-15T07:09:36.884Z,76.35
2023-04-15T07:12:04.256Z,76.49
2023-04-15T07:14:31.878Z,75.85
2023-04-15T07:16:59.176Z,75.21
2023-04-15T07:19:26.683Z,75.26
2023-04-15T07:21:54.015Z,75.80
2023-04-15T07:24:23.248Z,75.68
2023-04-15T07:26:50.532Z,76.01
2023-04-15T07:29:17.869Z,75.51
2023-04-15T07:31:45.150Z,75.27
2023-04-15T07:34:12.455Z,74.63
2023-04-15T07:36:40.435Z,74.38
2023-04-15T07:39:07.850Z,74.25
2023-04-15T07:41:35.275Z,74.26
2023-04-15T07:44:02.706Z,74.20
2023-04-15T07:46:30.062Z,72.70
2023-04-15T07:48:57.505Z,72.84
2023-04-15T07:51:24.906Z,73.01
2023-04-15T07:53:52.913Z,73.84
2023-04-15T07:56:20.823Z,73.10
2023-04-15T07:58:48.087Z,72.83
2023-04-15T08:01:15.358Z,72.74
2023-04-15T08:03:43.247Z,72.07
2023-04-15T08:06:10.728Z,72.24
2023-04-15T08:08:38.007Z,72.29
2023-04-15T08:11:05.472Z,72.46
2023-04-15T08:13:32.767Z,71.28
2023-04-15T08:16:22.812Z,68.68
2023-04-15T08:18:51.590Z,67.19
2023-04-15T08:21:19.392Z,67.29
2023-04-15T08:23:47.591Z,66.50
2023-04-15T08:26:14.838Z,63.94
2023-04-15T08:28:42.466Z,62.92
2023-04-15T08:31:09.946Z,63.09
2023-04-15T08:33:37.289Z,63.12
2023-04-15T08:36:04.789Z,63.66
2023-04-15T08:38:32.182Z,62.59
2023-04-15T08:41:00.795Z,62.79
2023-04-15T08:43:30.395Z,61.58
2023-04-15T08:45:59.141Z,60.25
2023-04-15T08:48:26.641Z,60.00
2023-04-15T08:50:53.932Z,61.87
2023-04-15T08:53:21.609Z,63.31
2023-04-15T08:55:52.558Z,62.98
2023-04-15T08:58:19.909Z,63.96
2023-04-15T09:00:48.864Z,65.52
2023-04-15T09:03:17.557Z,64.94
2023-04-15T09:05:44.987Z,65.11
2023-04-15T09:08:12.773Z,66.08
2023-04-15T09:10:40.137Z,66.98
2023-04-15T09:13:07.424Z,66.52
2023-04-15T09:15:34.709Z,65.53
2023-04-15T09:18:04.491Z,62.90
2023-04-15T09:20:31.758Z,58.22
2023-04-15T09:22:59.064Z,59.54
2023-04-15T09:25:28.308Z,59.20
2023-04-15T09:28:01.196Z,59.55
2023-04-15T09:30:29.166Z,60.02
2023-04-15T09:33:00.870Z,60.43
2023-04-15T09:35:28.294Z,59.66
2023-04-15T09:38:03.713Z,54.14
2023-04-15T09:40:41.265Z,55.52
2023-04-15T09:43:09.743Z,56.41
2023-04-15T09:45:37.256Z,56.60
2023-04-15T09:48:21.589Z,57.01
2023-04-15T09:50:49.536Z,57.03
2023-04-15T09:53:18.311Z,59.06
2023-04-15T09:55:52.567Z,58.29
2023-04-15T09:58:23.733Z,58.57
2023-04-15T10:00:51.949Z,57.45
2023-04-15T10:03:20.719Z,57.21
2023-04-15T10:05:49.765Z,57.35
2023-04-15T10:08:19.161Z,58.18
2023-04-15T10:10:47.463Z,55.99
2023-04-15T10:13:19.564Z,56.00
2023-04-15T10:15:53.523Z,56.06
2023-04-15T10:18:21.884Z,56.14
2023-04-15T10:20:52.030Z,55.19
2023-04-15T10:23:20.577Z,55.18
2023-04-15T10:25:49.011Z,56.00
2023-04-15T10:28:16.918Z,55.45
2023-04-15T10:30:44.182Z,55.62
2023-04-15T10:33:11.444Z,55.63
2023-04-15T10:35:39.323Z,54.70
2023-04-15T10:38:31.466Z,54.59
2023-04-15T10:41:34.682Z,55.31
2023-04-15T10:44:03.577Z,54.51
2023-04-15T10:46:38.701Z,54.22
2023-04-15T10:49:17.079Z,57.85
2023-04-15T10:51:46.020Z,59.59
2023-04-15T10:54:18.075Z,59.64
2023-04-15T10:56:45.509Z,59.19
2023-04-15T10:59:12.780Z,58.15
2023-04-15T11:02:15.977Z,56.84
2023-04-15T11:04:55.950Z,55.97
2023-04-15T11:07:36.963Z,56.11
2023-04-15T11:10:25.705Z,56.58
2023-04-15T11:12:54.261Z,58.05
2023-04-15T11:15:32.546Z,60.51
2023-04-15T11:18:19.360Z,64.56
2023-04-15T11:20:59.655Z,69.70
2023-04-15T11:23:39.454Z,72.36
2023-04-15T11:26:09.926Z,71.95
2023-04-15T11:31:27.910Z,73.19
2023-04-15T11:33:57.032Z,73.11
2023-04-15T11:34:21.176Z,72.45
2023-04-15T11:36:27.946Z,71.71
2023-04-15T11:38:55.610Z,71.04
2023-04-15T11:41:25.988Z,69.23
2023-04-15T11:43:53.295Z,66.81
2023-04-15T11:46:21.970Z,66.57
2023-04-15T11:48:49.306Z,66.61
2023-04-15T11:51:16.721Z,67.35
2023-04-15T11:53:47.916Z,67.49
2023-04-15T11:56:21.972Z,67.19
2023-04-15T11:58:52.058Z,67.82
2023-04-15T12:01:19.492Z,67.17
2023-04-15T12:03:47.373Z,66.30
2023-04-15T12:06:21.803Z,65.67
2023-04-15T12:08:59.106Z,64.19
2023-04-15T12:11:26.255Z,62.74
2023-04-15T12:13:57.045Z,59.09
2023-04-15T12:16:25.034Z,59.86
2023-04-15T12:18:52.935Z,58.44
2023-04-15T12:21:21.044Z,57.78
2023-04-15T12:23:50.258Z,57.24
2023-04-15T12:26:18.337Z,55.57
2023-04-15T12:28:45.627Z,53.64
2023-04-15T12:31:15.813Z,53.99
2023-04-15T12:33:43.569Z,54.25
2023-04-15T12:36:10.931Z,53.69
2023-04-15T12:38:38.282Z,53.09
2023-04-15T12:41:05.652Z,54.07
2023-04-15T12:43:33.013Z,52.91
2023-04-15T12:46:00.280Z,52.72
2023-04-15T12:48:27.525Z,51.73
2023-04-15T12:50:54.823Z,50.49
2023-04-15T12:53:22.409Z,51.17
2023-04-15T12:55:49.757Z,50.83
2023-04-15T12:58:17.075Z,52.67
2023-04-15T13:00:44.831Z,52.14
2023-04-15T13:03:12.237Z,53.83
2023-04-15T13:05:39.911Z,53.24
2023-04-15T13:08:07.250Z,53.08
2023-04-15T13:10:36.572Z,52.38
2023-04-15T13:13:04.160Z,51.73
2023-04-15T13:15:31.539Z,52.66
2023-04-15T13:17:58.817Z,52.16
2023-04-15T13:20:27.092Z,50.68
2023-04-15T13:22:54.416Z,50.08
2023-04-15T13:25:21.839Z,50.01
2023-04-15T13:27:50.186Z,49.51
2023-04-15T13:30:17.662Z,50.63
2023-04-15T13:32:44.999Z,51.27
2023-04-15T13:35:12.338Z,50.69
2023-04-15T13:37:39.677Z,49.46
2023-04-15T13:40:07.858Z,49.81
2023-04-15T13:42:35.203Z,50.83
2023-04-15T13:45:02.499Z,50.26
2023-04-15T13:47:29.754Z,50.05
2023-04-15T13:49:57.602Z,50.83
2023-04-15T13:52:24.895Z,51.30
2023-04-15T13:55:17.991Z,51.75
2023-04-15T13:57:39.490Z,51.87
2023-04-15T14:00:07.562Z,53.29
2023-04-15T14:02:35.966Z,56.81
2023-04-15T14:05:03.469Z,66.38
2023-04-15T14:07:31.018Z,71.50
2023-04-15T14:09:58.411Z,72.82
2023-04-15T14:12:25.671Z,71.92
2023-04-15T14:14:53.063Z,74.71
2023-04-15T14:17:20.421Z,73.68
2023-04-15T14:19:47.694Z,72.25
2023-04-15T14:22:14.938Z,71.99
2023-04-15T14:24:42.246Z,71.71
2023-04-15T14:27:11.260Z,72.26
2023-04-15T14:29:38.616Z,72.76
2023-04-15T14:32:12.353Z,72.37
2023-04-15T14:34:40.743Z,70.95
2023-04-15T14:37:08.049Z,70.87
2023-04-15T14:39:35.323Z,71.04
2023-04-15T14:42:02.558Z,73.41
2023-04-15T14:47:02.031Z,73.13
2023-04-15T14:49:30.456Z,73.64
2023-04-15T14:51:57.704Z,71.25
2023-04-15T14:54:24.958Z,70.69
2023-04-15T14:56:52.229Z,71.73
2023-04-15T14:59:19.497Z,70.80
2023-04-15T15:01:46.830Z,71.29
2023-04-15T15:04:14.397Z,71.80
2023-04-15T15:06:41.950Z,70.65
2023-04-15T15:09:09.270Z,70.20
2023-04-15T15:11:36.578Z,71.51
2023-04-15T15:14:03.993Z,72.43
2023-04-15T15:16:31.729Z,71.13
2023-04-15T15:18:59.029Z,69.32
2023-04-15T15:21:27.154Z,71.34
2023-04-15T15:23:54.493Z,73.16
2023-04-15T15:26:22.036Z,70.83
2023-04-15T15:28:50.790Z,73.08
2023-04-15T15:31:18.117Z,71.43
2023-04-15T15:33:45.441Z,69.10
2023-04-15T15:36:12.754Z,71.91
2023-04-15T15:38:40.776Z,70.25
2023-04-15T15:41:08.041Z,71.49
2023-04-15T15:43:35.355Z,73.88
2023-04-15T15:46:02.913Z,72.47
2023-04-15T15:48:30.355Z,71.77
2023-04-15T15:50:57.682Z,65.78
2023-04-15T15:53:25.938Z,61.32
2023-04-15T15:55:53.968Z,60.12
2023-04-15T15:58:21.446Z,59.84
2023-04-15T16:00:48.770Z,62.15
2023-04-15T16:03:16.359Z,60.85
2023-04-15T16:05:44.019Z,60.16
2023-04-15T16:08:11.308Z,62.16
2023-04-15T16:10:38.620Z,63.53
2023-04-15T16:13:05.892Z,65.63
2023-04-15T16:15:33.301Z,68.09
2023-04-15T16:18:00.727Z,70.07
2023-04-15T16:20:28.938Z,70.34
2023-04-15T16:22:57.125Z,71.32
2023-04-15T16:25:24.928Z,71.66
2023-04-15T16:28:01.424Z,71.96
2023-04-15T16:30:30.724Z,72.72
2023-04-15T16:32:58.077Z,72.02
2023-04-15T16:35:25.382Z,73.46
2023-04-15T16:37:52.667Z,73.51
2023-04-15T16:40:19.969Z,74.70
2023-04-15T16:42:47.258Z,75.55
2023-04-15T16:45:14.581Z,77.63
2023-04-15T16:47:41.900Z,78.17
2023-04-15T16:50:09.704Z,78.58
2023-04-15T16:52:37.009Z,79.53
2023-04-15T16:55:05.227Z,80.11
2023-04-15T16:57:40.496Z,80.16
2023-04-15T17:00:20.288Z,80.94
2023-04-15T17:02:47.731Z,80.85
2023-04-15T17:05:15.118Z,81.28
2023-04-15T17:07:42.361Z,81.71
2023-04-15T17:10:10.153Z,82.45
2023-04-15T17:12:37.683Z,83.10
2023-04-15T17:15:05.684Z,83.06
2023-04-15T17:17:33.152Z,83.22
2023-04-15T17:20:00.473Z,83.91
2023-04-15T17:22:27.787Z,84.32
2023-04-15T17:24:55.054Z,84.63
2023-04-15T17:27:22.776Z,84.88
2023-04-15T17:29:50.003Z,84.60
2023-04-15T17:32:17.234Z,84.44
2023-04-15T17:34:49.520Z,84.58
2023-04-15T17:37:18.694Z,84.84
2023-04-15T17:39:46.280Z,85.34
2023-04-15T17:42:13.666Z,85.80
2023-04-15T17:44:41.218Z,86.54
2023-04-15T17:47:08.459Z,84.80
2023-04-15T17:49:37.841Z,86.03
2023-04-15T17:52:05.287Z,86.16
2023-04-15T17:54:32.558Z,86.18
2023-04-15T17:57:00.288Z,86.64
2023-04-15T17:59:27.902Z,86.52
2023-04-15T18:01:55.500Z,86.80
2023-04-15T18:04:26.486Z,86.69
2023-04-15T18:06:54.276Z,87.23
2023-04-15T18:09:21.801Z,87.31
2023-04-15T18:11:49.272Z,87.28
2023-04-15T18:14:30.550Z,87.22
2023-04-15T18:16:58.306Z,87.22
2023-04-15T18:19:25.856Z,86.74
2023-04-15T18:21:53.145Z,86.38
2023-04-15T18:24:20.651Z,87.22
2023-04-15T18:26:49.195Z,86.72
2023-04-15T18:29:16.899Z,87.37
2023-04-15T18:31:44.271Z,87.79
2023-04-15T18:34:11.544Z,87.97
2023-04-15T18:36:38.820Z,87.80
2023-04-15T18:39:06.224Z,87.32
2023-04-15T18:41:33.771Z,87.09
2023-04-15T18:44:01.080Z,87.81
2023-04-15T18:46:28.385Z,88.12
2023-04-15T18:48:55.654Z,87.49
2023-04-15T18:51:22.906Z,88.03
2023-04-15T18:53:50.485Z,87.98
2023-04-15T18:56:17.740Z,87.85
2023-04-15T18:59:08.586Z,88.62
2023-04-15T19:01:32.420Z,87.77
2023-04-15T19:03:59.894Z,88.00
2023-04-15T19:06:28.684Z,88.00
2023-04-15T19:08:57.983Z,88.22
2023-04-15T19:11:26.009Z,87.96
2023-04-15T19:13:53.408Z,88.12
2023-04-15T19:16:21.129Z,88.33
2023-04-15T19:18:48.464Z,87.58
2023-04-15T19:21:15.757Z,88.47
2023-04-15T19:23:43.219Z,88.09
2023-04-15T19:26:11.255Z,88.19
2023-04-15T19:28:38.538Z,87.76
2023-04-15T19:31:05.939Z,88.67
2023-04-15T19:33:33.356Z,88.33
2023-04-15T19:36:05.551Z,87.96
2023-04-15T19:38:34.984Z,87.63
2023-04-15T19:41:02.322Z,87.02
2023-04-15T19:43:29.866Z,86.46
2023-04-15T19:45:57.272Z,87.18
2023-04-15T19:48:24.760Z,87.53
2023-04-15T19:50:52.067Z,88.01
2023-04-15T19:53:19.324Z,88.19
2023-04-15T19:55:48.406Z,86.92
2023-04-15T19:58:16.173Z,87.67
2023-04-15T20:00:43.534Z,87.03
2023-04-15T20:03:10.991Z,88.98
2023-04-15T20:05:38.386Z,88.08
2023-04-15T20:08:05.744Z,87.57
2023-04-15T20:10:33.020Z,88.51
2023-04-15T20:13:00.523Z,88.69
2023-04-15T20:15:27.828Z,88.52
2023-04-15T20:17:55.207Z,88.38
2023-04-15T20:20:22.582Z,88.19
2023-04-15T20:22:49.927Z,88.52
2023-04-15T20:25:17.251Z,88.35
2023-04-15T20:27:44.760Z,88.71
2023-04-15T20:30:12.111Z,88.33
2023-04-15T20:32:39.436Z,88.56
2023-04-15T20:35:07.303Z,88.48
2023-04-15T20:37:34.879Z,88.27
2023-04-15T20:40:02.422Z,87.98
2023-04-15T20:42:34.335Z,88.12
2023-04-15T20:45:02.144Z,88.06
2023-04-15T20:47:30.000Z,88.82
2023-04-15T20:49:57.384Z,89.09
2023-04-15T20:52:24.628Z,88.91
2023-04-15T20:54:52.010Z,89.37
2023-04-15T20:57:20.230Z,88.85
2023-04-15T20:59:47.595Z,89.23
2023-04-15T21:02:14.999Z,88.72
2023-04-15T21:04:42.357Z,88.26
2023-04-15T21:07:10.023Z,88.17
2023-04-15T21:09:41.317Z,88.49
2023-04-15T21:12:09.304Z,89.29
2023-04-15T21:14:37.090Z,88.93
2023-04-15T21:17:09.256Z,88.37
2023-04-15T21:19:37.615Z,88.49
2023-04-15T21:22:04.985Z,87.63
2023-04-15T21:24:32.243Z,87.00
2023-04-15T21:26:59.493Z,87.01
2023-04-15T21:29:26.825Z,87.91
2023-04-15T21:31:54.225Z,87.32
2023-04-15T21:34:21.650Z,87.17
2023-04-15T21:36:49.041Z,87.46
2023-04-15T21:39:17.140Z,88.09
2023-04-15T21:41:44.470Z,88.07
2023-04-15T21:44:14.401Z,87.44
2023-04-15T21:46:46.005Z,87.60
2023-04-15T21:49:13.959Z,87.82
2023-04-15T21:51:41.327Z,87.53
2023-04-15T21:54:08.610Z,88.54
2023-04-15T21:56:36.873Z,88.13
2023-04-15T21:59:04.402Z,88.04
2023-04-15T22:01:32.028Z,88.43
2023-04-15T22:03:59.665Z,88.40
2023-04-15T22:06:27.200Z,89.12
2023-04-15T22:08:57.565Z,89.26
2023-04-15T22:11:30.366Z,88.43
2023-04-15T22:13:58.376Z,88.42
2023-04-15T22:16:26.546Z,88.41
2023-04-15T22:18:54.843Z,89.06
2023-04-15T22:21:22.305Z,89.43
2023-04-15T22:23:49.613Z,88.83
2023-04-15T22:26:16.892Z,89.37
2023-04-15T22:28:44.192Z,88.99
2023-04-15T22:31:11.634Z,88.86
2023-04-15T22:33:39.104Z,89.59
2023-04-15T22:36:06.479Z,89.24
2023-04-15T22:38:33.787Z,89.31
2023-04-15T22:41:01.315Z,89.06
2023-04-15T22:43:28.664Z,90.08
2023-04-15T22:45:56.632Z,89.66
2023-04-15T22:48:24.036Z,89.48
2023-04-15T22:50:51.643Z,89.81
2023-04-15T22:53:19.011Z,89.49
2023-04-15T22:55:49.488Z,88.92
2023-04-15T22:58:18.356Z,89.49
2023-04-15T23:00:45.911Z,89.94
2023-04-15T23:03:13.334Z,89.54
2023-04-15T23:05:41.294Z,89.95
2023-04-15T23:08:08.749Z,90.35
2023-04-15T23:10:36.023Z,89.47
2023-04-15T23:13:03.263Z,89.47
2023-04-15T23:15:30.570Z,89.57
2023-04-15T23:17:57.991Z,89.71
2023-04-15T23:20:25.369Z,90.52
2023-04-15T23:22:52.640Z,90.05
2023-04-15T23:25:22.291Z,89.59
2023-04-15T23:27:49.609Z,89.23
2023-04-15T23:30:16.936Z,89.94
2023-04-15T23:32:44.306Z,89.95
2023-04-15T23:35:11.723Z,90.62
2023-04-15T23:37:39.004Z,90.27
2023-04-15T23:40:07.011Z,90.64
2023-04-15T23:42:34.295Z,89.93
2023-04-15T23:45:01.595Z,90.09
2023-04-15T23:47:28.936Z,90.57
2023-04-15T23:49:56.522Z,90.31
2023-04-15T23:52:24.053Z,90.83
2023-04-15T23:54:51.448Z,90.82
2023-04-15T23:57:18.886Z,90.22
2023-04-15T23:59:46.256Z,90.63
